createdAt,value
2022-12-18T00:01:26.764Z,9.37
2022-12-18T00:03:55.240Z,9.00
2022-12-18T00:06:23.626Z,10.27
2022-12-18T00:08:50.763Z,9.43
2022-12-18T00:11:22.565Z,10.10
2022-12-18T00:13:50.002Z,9.43
2022-12-18T00:16:21.685Z,9.33
2022-12-18T00:18:50.339Z,10.10
2022-12-18T00:21:17.979Z,9.00
2022-12-18T00:23:47.911Z,9.40
2022-12-18T00:26:19.693Z,10.37
2022-12-18T00:28:47.456Z,9.97
2022-12-18T00:31:17.877Z,10.17
2022-12-18T00:33:45.246Z,9.23
2022-12-18T00:36:18.559Z,9.93
2022-12-18T00:38:46.896Z,8.90
2022-12-18T00:41:35.485Z,10.53
2022-12-18T00:44:05.343Z,9.53
2022-12-18T00:46:33.246Z,9.93
2022-12-18T00:49:00.867Z,9.43
2022-12-18T00:51:27.916Z,9.07
2022-12-18T00:53:55.067Z,9.70
2022-12-18T00:56:25.480Z,9.90
2022-12-18T00:58:53.490Z,8.37
2022-12-18T01:01:20.963Z,9.73
2022-12-18T01:03:48.447Z,10.93
2022-12-18T01:06:17.560Z,9.53
2022-12-18T01:08:45.315Z,8.80
2022-12-18T01:11:19.023Z,10.43
2022-12-18T01:13:46.250Z,9.50
2022-12-18T01:16:15.224Z,7.93
2022-12-18T01:18:42.671Z,9.03
2022-12-18T01:21:14.713Z,9.63
2022-12-18T01:23:42.512Z,8.70
2022-12-18T01:26:15.079Z,8.17
2022-12-18T01:28:42.730Z,8.53
2022-12-18T01:31:30.493Z,8.40
2022-12-18T01:33:58.100Z,8.37
2022-12-18T01:36:27.693Z,9.37
2022-12-18T01:38:55.177Z,9.83
2022-12-18T01:41:25.676Z,8.80
2022-12-18T01:43:58.446Z,7.93
2022-12-18T01:46:28.915Z,9.50
2022-12-18T01:49:02.464Z,7.40
2022-12-18T01:51:31.891Z,7.63
2022-12-18T01:54:00.520Z,8.10
2022-12-18T01:56:27.969Z,9.13
2022-12-18T01:59:05.914Z,8.17
2022-12-18T02:01:34.152Z,8.50
2022-12-18T02:04:31.542Z,7.87
2022-12-18T02:07:10.471Z,7.90
2022-12-18T02:09:44.703Z,8.17
2022-12-18T02:12:29.503Z,8.43
2022-12-18T02:15:17.829Z,7.67
2022-12-18T02:17:54.449Z,7.80
2022-12-18T02:20:26.004Z,8.63
2022-12-18T02:23:08.809Z,7.67
2022-12-18T02:25:58.319Z,7.50
2022-12-18T02:28:29.593Z,6.83
2022-12-18T02:31:03.215Z,7.20
2022-12-18T02:33:32.055Z,8.50
2022-12-18T02:36:01.314Z,8.20
2022-12-18T02:38:30.942Z,8.57
2022-12-18T02:41:04.456Z,9.43
2022-12-18T02:43:32.217Z,9.27
2022-12-18T02:46:01.810Z,9.63
2022-12-18T02:48:35.265Z,9.43
2022-12-18T02:51:10.288Z,8.67
2022-12-18T02:53:43.266Z,9.20
2022-12-18T02:56:17.879Z,10.07
2022-12-18T02:59:04.281Z,9.53
2022-12-18T03:02:03.889Z,9.10
2022-12-18T03:04:43.452Z,9.00
2022-12-18T03:07:16.763Z,9.40
2022-12-18T03:09:48.898Z,11.00
2022-12-18T03:12:30.491Z,9.37
2022-12-18T03:15:17.216Z,9.77
2022-12-18T03:17:50.981Z,10.70
2022-12-18T03:20:21.535Z,10.17
2022-12-18T03:22:54.133Z,9.17
2022-12-18T03:25:22.035Z,9.87
2022-12-18T03:27:58.926Z,10.17
2022-12-18T03:30:30.170Z,8.47
2022-12-18T03:33:09.015Z,9.40
2022-12-18T03:35:43.998Z,9.73
2022-12-18T03:38:13.342Z,9.30
2022-12-18T03:40:49.801Z,8.40
2022-12-18T03:43:25.943Z,8.73
2022-12-18T03:46:01.630Z,8.87
2022-12-18T03:48:51.437Z,8.23
2022-12-18T03:51:29.573Z,8.27
2022-12-18T03:54:03.671Z,9.25
2022-12-18T03:56:39.942Z,8.00
2022-12-18T03:59:11.119Z,7.73
2022-12-18T04:01:44.490Z,8.50
2022-12-18T04:04:17.510Z,7.37
2022-12-18T04:06:48.211Z,8.23
2022-12-18T04:09:15.869Z,8.37
2022-12-18T04:11:47.925Z,8.10
2022-12-18T04:14:18.228Z,7.13
2022-12-18T04:16:48.950Z,7.80
2022-12-18T04:19:18.250Z,8.17
2022-12-18T04:21:48.847Z,7.77
2022-12-18T04:24:15.961Z,7.43
2022-12-18T04:26:52.262Z,8.15
2022-12-18T04:29:25.129Z,7.57
2022-12-18T04:31:52.362Z,8.50
2022-12-18T04:34:20.310Z,7.87
2022-12-18T04:36:53.135Z,7.50
2022-12-18T04:39:21.905Z,7.37
2022-12-18T04:41:52.199Z,7.37
2022-12-18T04:44:19.136Z,7.93
2022-12-18T04:46:46.208Z,7.13
2022-12-18T04:49:13.617Z,7.37
2022-12-18T04:51:40.838Z,7.53
2022-12-18T04:54:07.766Z,7.63
2022-12-18T04:56:34.731Z,8.10
2022-12-18T04:59:01.654Z,7.63
2022-12-18T05:01:34.372Z,7.30
2022-12-18T05:04:02.944Z,7.07
2022-12-18T05:06:29.971Z,7.43
2022-12-18T05:08:56.933Z,8.00
2022-12-18T05:11:23.912Z,7.53
2022-12-18T05:13:50.918Z,8.07
2022-12-18T05:16:18.015Z,7.93
2022-12-18T05:18:45.046Z,9.60
2022-12-18T05:21:12.031Z,8.43
2022-12-18T05:23:39.434Z,7.90
2022-12-18T05:26:08.955Z,8.27
2022-12-18T05:28:37.235Z,7.40
2022-12-18T05:31:05.469Z,8.00
2022-12-18T05:33:34.415Z,8.07
2022-12-18T05:36:03.264Z,7.70
2022-12-18T05:38:31.782Z,7.13
2022-12-18T05:40:59.320Z,7.70
2022-12-18T05:43:27.725Z,7.37
2022-12-18T05:45:55.177Z,8.37
2022-12-18T05:48:22.763Z,8.30
2022-12-18T05:50:51.898Z,8.23
2022-12-18T05:53:21.342Z,8.33
2022-12-18T05:55:48.594Z,8.27
2022-12-18T05:58:16.444Z,8.70
2022-12-18T06:00:47.110Z,9.07
2022-12-18T06:03:15.074Z,9.97
2022-12-18T06:05:46.425Z,8.93
2022-12-18T06:08:14.603Z,9.07
2022-12-18T06:10:42.296Z,7.97
2022-12-18T06:13:09.297Z,7.37
2022-12-18T06:15:39.326Z,8.67
2022-12-18T06:18:06.268Z,8.30
2022-12-18T06:20:34.005Z,8.47
2022-12-18T06:23:01.461Z,9.10
2022-12-18T06:25:28.847Z,8.07
2022-12-18T06:27:56.068Z,8.03
2022-12-18T06:30:23.265Z,8.13
2022-12-18T06:32:56.383Z,7.27
2022-12-18T06:35:24.422Z,7.77
2022-12-18T06:37:51.936Z,7.67
2022-12-18T06:40:19.455Z,8.10
2022-12-18T06:42:46.469Z,8.00
2022-12-18T06:45:16.677Z,8.43
2022-12-18T06:47:43.822Z,8.93
2022-12-18T06:50:11.150Z,6.67
2022-12-18T06:52:38.168Z,6.60
2022-12-18T06:55:05.754Z,6.30
2022-12-18T06:57:35.617Z,6.20
2022-12-18T07:00:03.949Z,7.20
2022-12-18T07:02:32.034Z,8.30
2022-12-18T07:04:59.231Z,7.97
2022-12-18T07:07:26.193Z,8.13
2022-12-18T07:09:53.205Z,7.43
2022-12-18T07:12:20.154Z,7.13
2022-12-18T07:14:47.257Z,6.30
2022-12-18T07:17:14.237Z,7.80
2022-12-18T07:19:41.265Z,8.13
2022-12-18T07:22:08.191Z,8.37
2022-12-18T07:24:35.626Z,9.37
2022-12-18T07:27:03.350Z,9.00
2022-12-18T07:29:31.092Z,9.67
2022-12-18T07:31:58.185Z,9.00
2022-12-18T07:34:25.363Z,8.43
2022-12-18T07:36:52.411Z,8.23
2022-12-18T07:39:19.367Z,7.40
2022-12-18T07:42:09.092Z,8.20
2022-12-18T07:44:36.229Z,7.80
2022-12-18T07:47:06.655Z,7.20
2022-12-18T07:49:37.586Z,6.60
2022-12-18T07:52:04.674Z,6.80
2022-12-18T07:54:31.612Z,7.30
2022-12-18T07:56:58.634Z,6.80
2022-12-18T07:59:25.565Z,6.17
2022-12-18T08:01:52.682Z,7.20
2022-12-18T08:04:19.845Z,6.70
2022-12-18T08:06:48.352Z,7.20
2022-12-18T08:09:15.801Z,8.10
2022-12-18T08:11:43.255Z,7.70
2022-12-18T08:14:10.940Z,9.80
2022-12-18T08:16:38.480Z,7.07
2022-12-18T08:19:05.464Z,7.10
2022-12-18T08:21:33.038Z,7.80
2022-12-18T08:24:01.783Z,7.13
2022-12-18T08:26:31.530Z,7.17
2022-12-18T08:29:00.626Z,7.17
2022-12-18T08:31:30.662Z,6.87
2022-12-18T08:33:58.351Z,6.80
2022-12-18T08:36:26.206Z,7.63
2022-12-18T08:38:54.600Z,7.23
2022-12-18T08:41:22.427Z,8.33
2022-12-18T08:44:08.643Z,6.90
2022-12-18T08:46:41.258Z,6.00
2022-12-18T08:49:09.666Z,6.20
2022-12-18T08:51:37.119Z,6.20
2022-12-18T08:54:05.299Z,5.60
2022-12-18T08:56:34.355Z,6.77
2022-12-18T08:59:01.593Z,6.60
2022-12-18T09:01:29.470Z,5.83
2022-12-18T09:03:56.979Z,6.27
2022-12-18T09:06:24.762Z,7.90
2022-12-18T09:08:51.732Z,7.13
2022-12-18T09:11:27.523Z,6.03
2022-12-18T09:13:55.827Z,7.00
2022-12-18T09:16:28.814Z,5.60
2022-12-18T09:19:02.823Z,5.85
2022-12-18T09:21:37.250Z,6.10
2022-12-18T09:24:08.600Z,6.03
2022-12-18T09:26:36.956Z,5.43
2022-12-18T09:29:04.692Z,5.57
2022-12-18T09:31:31.719Z,5.93
2022-12-18T09:33:58.736Z,5.60
2022-12-18T09:36:25.783Z,5.70
2022-12-18T09:38:52.802Z,5.90
2022-12-18T09:41:19.738Z,4.90
2022-12-18T09:43:53.987Z,5.33
2022-12-18T09:46:34.067Z,6.00
2022-12-18T09:49:04.929Z,5.43
2022-12-18T09:51:38.735Z,6.00
2022-12-18T09:54:12.396Z,5.37
2022-12-18T09:56:43.986Z,5.47
2022-12-18T09:59:40.908Z,6.23
2022-12-18T10:02:34.254Z,4.63
2022-12-18T10:05:04.774Z,5.20
2022-12-18T10:07:34.751Z,5.27
2022-12-18T10:10:38.684Z,5.03
2022-12-18T10:13:14.491Z,4.37
2022-12-18T10:15:49.766Z,5.17
2022-12-18T10:19:08.872Z,4.73
2022-12-18T10:24:19.511Z,4.77
2022-12-18T10:26:48.207Z,5.33
2022-12-18T10:29:17.365Z,4.97
2022-12-18T10:31:44.559Z,5.37
2022-12-18T10:34:15.894Z,5.47
2022-12-18T10:36:43.873Z,5.80
2022-12-18T10:39:29.024Z,5.80
2022-12-18T10:42:31.363Z,5.80
2022-12-18T10:45:12.667Z,4.67
2022-12-18T10:47:51.862Z,4.83
2022-12-18T10:51:01.818Z,4.17
2022-12-18T10:53:28.874Z,5.03
2022-12-18T10:56:02.381Z,5.23
2022-12-18T10:58:33.368Z,5.03
2022-12-18T11:01:08.156Z,4.87
2022-12-18T11:03:38.557Z,5.37
2022-12-18T11:06:21.253Z,6.20
2022-12-18T11:09:01.128Z,5.33
2022-12-18T11:11:29.423Z,6.00
2022-12-18T11:14:04.518Z,4.43
2022-12-18T11:16:37.030Z,5.20
2022-12-18T11:19:37.731Z,6.03
2022-12-18T11:22:27.517Z,5.13
2022-12-18T11:28:07.031Z,5.32
2022-12-18T11:30:37.865Z,5.97
2022-12-18T11:33:14.363Z,5.63
2022-12-18T11:35:56.216Z,6.00
2022-12-18T11:38:27.972Z,6.07
2022-12-18T11:41:50.003Z,5.50
2022-12-18T11:44:26.418Z,5.00
2022-12-18T11:47:00.509Z,4.85
2022-12-18T11:49:37.757Z,4.90
2022-12-18T11:52:27.931Z,4.60
2022-12-18T11:55:02.450Z,5.57
2022-12-18T11:57:42.363Z,5.00
2022-12-18T12:00:22.548Z,4.83
2022-12-18T12:03:19.662Z,4.93
2022-12-18T12:05:52.002Z,4.60
2022-12-18T12:08:27.790Z,5.37
2022-12-18T12:11:21.072Z,4.97
2022-12-18T12:14:05.244Z,4.43
2022-12-18T12:16:54.783Z,4.47
2022-12-18T12:19:30.780Z,4.70
2022-12-18T12:22:14.916Z,4.33
2022-12-18T12:25:15.636Z,4.50
2022-12-18T12:28:16.565Z,4.43
2022-12-18T12:31:32.543Z,4.30
2022-12-18T12:34:18.752Z,4.03
2022-12-18T12:36:53.807Z,4.00
2022-12-18T12:39:29.286Z,4.33
2022-12-18T12:42:15.227Z,3.83
2022-12-18T12:44:56.442Z,4.47
2022-12-18T12:47:27.619Z,4.13
2022-12-18T12:49:55.473Z,4.17
2022-12-18T12:52:35.341Z,3.90
2022-12-18T12:55:10.265Z,4.00
2022-12-18T12:57:47.198Z,3.90
2022-12-18T13:00:17.254Z,3.87
2022-12-18T13:02:55.259Z,4.30
2022-12-18T13:05:51.482Z,3.27
2022-12-18T13:08:31.169Z,4.07
2022-12-18T13:14:20.832Z,4.70
2022-12-18T13:16:47.758Z,4.43
2022-12-18T13:19:27.785Z,3.90
2022-12-18T13:21:58.438Z,4.70
2022-12-18T13:24:32.449Z,5.17
2022-12-18T13:26:59.476Z,4.50
2022-12-18T13:29:55.918Z,4.33
2022-12-18T13:32:26.304Z,6.07
2022-12-18T13:35:18.973Z,5.47
2022-12-18T13:37:54.062Z,5.60
2022-12-18T13:40:39.842Z,5.93
2022-12-18T13:43:43.886Z,6.70
2022-12-18T13:46:37.659Z,7.30
2022-12-18T13:49:11.197Z,8.13
2022-12-18T13:51:42.928Z,8.53
2022-12-18T13:54:21.620Z,10.40
2022-12-18T13:56:49.829Z,8.33
2022-12-18T13:59:25.012Z,10.20
2022-12-18T14:02:00.865Z,10.17
2022-12-18T14:04:33.747Z,10.73
2022-12-18T14:07:16.626Z,10.30
2022-12-18T14:09:47.388Z,9.30
2022-12-18T14:12:37.337Z,11.50
2022-12-18T14:15:07.914Z,8.70
2022-12-18T14:17:35.160Z,10.30
2022-12-18T14:20:03.504Z,9.80
2022-12-18T14:22:31.977Z,9.63
2022-12-18T14:25:13.944Z,10.07
2022-12-18T14:28:04.080Z,10.50
2022-12-18T14:30:38.429Z,10.20
2022-12-18T14:33:10.432Z,9.23
2022-12-18T14:35:40.514Z,9.00
2022-12-18T14:38:27.069Z,8.43
2022-12-18T14:40:55.551Z,8.50
2022-12-18T14:43:25.959Z,8.00
2022-12-18T14:45:53.397Z,7.83
2022-12-18T14:48:40.803Z,7.63
2022-12-18T14:51:19.801Z,6.95
2022-12-18T14:53:54.524Z,5.90
2022-12-18T14:56:23.512Z,7.03
2022-12-18T14:58:55.597Z,6.90
2022-12-18T15:01:38.574Z,6.27
2022-12-18T15:04:24.371Z,5.80
2022-12-18T15:07:07.254Z,5.10
2022-12-18T15:09:34.406Z,5.57
2022-12-18T15:12:02.635Z,6.33
2022-12-18T15:14:41.447Z,5.80
2022-12-18T15:17:34.621Z,5.93
2022-12-18T15:20:04.989Z,6.13
2022-12-18T15:22:35.775Z,5.57
2022-12-18T15:25:20.945Z,5.57
2022-12-18T15:27:48.661Z,6.40
2022-12-18T15:30:15.674Z,5.27
2022-12-18T15:32:42.762Z,5.50
2022-12-18T15:35:15.653Z,5.43
2022-12-18T15:37:43.511Z,5.30
2022-12-18T15:40:21.782Z,5.60
2022-12-18T15:43:08.089Z,4.70
2022-12-18T15:45:35.032Z,5.27
2022-12-18T15:48:11.909Z,4.63
2022-12-18T15:50:38.890Z,4.47
2022-12-18T15:53:05.904Z,5.43
2022-12-18T15:55:56.560Z,5.03
2022-12-18T15:58:27.802Z,5.40
2022-12-18T16:00:56.783Z,5.20
2022-12-18T16:03:23.785Z,5.90
2022-12-18T16:05:51.519Z,5.60
2022-12-18T16:08:18.502Z,5.10
2022-12-18T16:10:45.522Z,5.87
2022-12-18T16:13:21.719Z,6.50
2022-12-18T16:15:48.911Z,5.35
2022-12-18T16:18:15.883Z,5.27
2022-12-18T16:20:43.048Z,4.73
2022-12-18T16:23:10.054Z,5.80
2022-12-18T16:25:37.134Z,5.00
2022-12-18T16:28:04.144Z,4.13
2022-12-18T16:30:38.238Z,5.80
2022-12-18T16:33:07.705Z,5.80
2022-12-18T16:35:35.383Z,5.60
2022-12-18T16:38:02.450Z,5.10
2022-12-18T16:40:32.619Z,6.20
2022-12-18T16:42:59.591Z,5.53
2022-12-18T16:45:34.235Z,6.23
2022-12-18T16:48:01.320Z,6.30
2022-12-18T16:50:28.306Z,6.00
2022-12-18T16:52:55.288Z,5.90
2022-12-18T16:55:22.298Z,5.00
2022-12-18T16:57:49.341Z,5.63
2022-12-18T17:00:16.872Z,6.77
2022-12-18T17:02:44.017Z,6.20
2022-12-18T17:05:11.189Z,6.10
2022-12-18T17:07:38.998Z,6.20
2022-12-18T17:10:06.438Z,6.67
2022-12-18T17:12:33.419Z,5.73
2022-12-18T17:15:00.557Z,6.97
2022-12-18T17:17:27.605Z,6.03
2022-12-18T17:19:54.657Z,6.70
2022-12-18T17:22:23.526Z,6.60
2022-12-18T17:24:50.825Z,6.90
2022-12-18T17:27:17.842Z,6.50
2022-12-18T17:29:48.054Z,5.77
2022-12-18T17:32:16.577Z,6.80
2022-12-18T17:34:43.540Z,7.00
2022-12-18T17:37:10.495Z,5.63
2022-12-18T17:39:37.807Z,6.33
2022-12-18T17:42:05.298Z,6.47
2022-12-18T17:44:34.440Z,5.37
2022-12-18T17:47:01.961Z,5.33
2022-12-18T17:49:29.252Z,5.47
2022-12-18T17:51:56.226Z,6.83
2022-12-18T17:54:23.253Z,5.83
2022-12-18T17:56:50.315Z,7.03
2022-12-18T17:59:17.450Z,6.27
2022-12-18T18:01:46.096Z,5.60
2022-12-18T18:04:15.488Z,5.33
2022-12-18T18:06:42.625Z,6.30
2022-12-18T18:09:16.146Z,5.73
2022-12-18T18:12:04.120Z,5.73
2022-12-18T18:14:31.921Z,5.63
2022-12-18T18:17:04.225Z,6.10
2022-12-18T18:19:32.959Z,5.70
2022-12-18T18:22:00.150Z,5.67
2022-12-18T18:24:27.390Z,5.37
2022-12-18T18:26:59.632Z,5.87
2022-12-18T18:29:30.432Z,5.53
2022-12-18T18:31:58.208Z,5.47
2022-12-18T18:34:28.227Z,6.83
2022-12-18T18:36:55.467Z,6.57
2022-12-18T18:39:25.568Z,5.40
2022-12-18T18:41:52.610Z,6.00
2022-12-18T18:44:21.544Z,6.40
2022-12-18T18:46:54.160Z,5.63
2022-12-18T18:49:21.515Z,6.17
2022-12-18T18:51:50.794Z,5.90
2022-12-18T18:54:17.753Z,5.47
2022-12-18T18:57:18.820Z,6.53
2022-12-18T18:59:32.272Z,5.68
2022-12-18T19:02:04.450Z,5.97
2022-12-18T19:04:33.731Z,5.97
2022-12-18T19:07:01.439Z,6.40
2022-12-18T19:09:28.820Z,5.93
2022-12-18T19:12:14.353Z,6.40
2022-12-18T19:14:44.918Z,6.00
2022-12-18T19:17:12.002Z,5.67
2022-12-18T19:19:39.139Z,6.53
2022-12-18T19:22:06.291Z,6.23
2022-12-18T19:24:33.285Z,6.93
2022-12-18T19:27:00.314Z,6.13
2022-12-18T19:29:27.359Z,6.43
2022-12-18T19:31:54.452Z,6.87
2022-12-18T19:34:21.488Z,7.53
2022-12-18T19:36:48.483Z,6.83
2022-12-18T19:39:17.787Z,6.67
2022-12-18T19:41:46.839Z,7.03
2022-12-18T19:44:16.262Z,7.27
2022-12-18T19:46:44.358Z,6.63
2022-12-18T19:49:17.277Z,8.20
2022-12-18T19:51:47.532Z,7.60
2022-12-18T19:54:17.921Z,7.53
2022-12-18T19:56:46.047Z,7.67
2022-12-18T19:59:13.551Z,8.13
2022-12-18T20:01:41.321Z,8.37
2022-12-18T20:04:09.072Z,7.20
2022-12-18T20:06:47.126Z,7.00
2022-12-18T20:09:14.287Z,8.43
2022-12-18T20:11:42.237Z,9.67
2022-12-18T20:14:13.915Z,8.37
2022-12-18T20:16:41.617Z,8.07
2022-12-18T20:19:10.947Z,7.93
2022-12-18T20:21:38.287Z,7.63
2022-12-18T20:24:07.078Z,8.27
2022-12-18T20:26:34.658Z,7.67
2022-12-18T20:29:01.659Z,7.80
2022-12-18T20:31:28.726Z,9.10
2022-12-18T20:34:01.471Z,8.97
2022-12-18T20:36:30.787Z,7.43
2022-12-18T20:39:01.645Z,8.63
2022-12-18T20:41:37.354Z,7.97
2022-12-18T20:44:08.632Z,8.50
2022-12-18T20:46:50.576Z,8.33
2022-12-18T20:49:17.573Z,9.03
2022-12-18T20:51:44.706Z,8.57
2022-12-18T20:54:12.091Z,10.23
2022-12-18T20:56:39.132Z,7.90
2022-12-18T20:59:06.402Z,8.90
2022-12-18T21:01:33.563Z,9.17
2022-12-18T21:04:02.403Z,8.83
2022-12-18T21:06:29.578Z,10.87
2022-12-18T21:08:56.858Z,11.30
2022-12-18T21:11:48.396Z,11.03
2022-12-18T21:14:18.144Z,8.47
2022-12-18T21:16:45.809Z,7.63
2022-12-18T21:19:15.294Z,9.57
2022-12-18T21:21:42.904Z,10.07
2022-12-18T21:24:10.655Z,9.40
2022-12-18T21:26:44.831Z,7.93
2022-12-18T21:29:17.872Z,8.73
2022-12-18T21:31:47.107Z,9.53
2022-12-18T21:34:21.383Z,11.00
2022-12-18T21:36:48.815Z,10.40
2022-12-18T21:39:16.926Z,10.07
2022-12-18T21:42:02.728Z,8.53
2022-12-18T21:44:30.611Z,9.70
2022-12-18T21:47:20.868Z,10.60
2022-12-18T21:49:54.019Z,10.87
2022-12-18T21:52:27.291Z,9.87
2022-12-18T21:55:08.947Z,9.37
2022-12-18T21:57:38.715Z,10.37
2022-12-18T22:00:07.669Z,9.27
2022-12-18T22:02:40.895Z,8.67
2022-12-18T22:05:08.561Z,8.83
2022-12-18T22:07:35.835Z,9.23
2022-12-18T22:10:02.836Z,8.07
2022-12-18T22:12:43.112Z,9.30
2022-12-18T22:15:21.061Z,8.10
2022-12-18T22:17:50.766Z,6.40
2022-12-18T22:20:19.955Z,7.40
2022-12-18T22:22:48.395Z,6.70
2022-12-18T22:25:15.454Z,6.83
2022-12-18T22:27:42.405Z,6.20
2022-12-18T22:30:11.387Z,6.33
2022-12-18T22:32:38.367Z,6.60
2022-12-18T22:35:10.653Z,7.60
2022-12-18T22:37:42.477Z,7.50
2022-12-18T22:40:23.711Z,7.27
2022-12-18T22:42:54.899Z,6.97
2022-12-18T22:45:26.179Z,7.03
2022-12-18T22:47:53.551Z,7.80
2022-12-18T22:50:20.630Z,7.60
2022-12-18T22:52:47.579Z,7.03
2022-12-18T22:55:14.604Z,8.03
2022-12-18T22:57:48.800Z,7.10
2022-12-18T23:00:24.296Z,8.03
2022-12-18T23:03:00.560Z,7.07
2022-12-18T23:05:33.728Z,6.75
2022-12-18T23:08:02.216Z,7.27
2022-12-18T23:10:29.795Z,6.50
2022-12-18T23:12:56.923Z,7.57
2022-12-18T23:15:28.066Z,7.47
2022-12-18T23:17:56.421Z,7.27
2022-12-18T23:20:23.385Z,7.03
2022-12-18T23:22:50.365Z,6.77
2022-12-18T23:25:17.437Z,7.83
2022-12-18T23:27:44.803Z,7.17
2022-12-18T23:30:12.347Z,6.80
2022-12-18T23:32:39.387Z,6.50
2022-12-18T23:35:06.952Z,7.80
2022-12-18T23:37:58.436Z,7.23
2022-12-18T23:40:22.923Z,7.68
2022-12-18T23:42:49.922Z,6.53
2022-12-18T23:45:18.128Z,7.63
2022-12-18T23:47:48.256Z,6.80
2022-12-18T23:50:18.224Z,6.30
2022-12-18T23:52:45.202Z,6.67
2022-12-18T23:55:12.265Z,6.83
2022-12-18T23:57:39.677Z,6.30
